Time;durP1;ratioP1;P1;durP2;ratioP2;P2;SDS_P1;SDS_P2;PMS_P1;PMS_P2;Temp;Humidity;BMP_temperature;BMP_pressure;BME280_temperature;BME280_humidity;BME280_pressure;Samples;Min_cycle;Max_cycle;Signal;HPM_P1;HPM_P2
2023/08/19 00:00:55;;;;;;;16.25;8.40;;;;;;;;;;6185479;23;20192;-92
2023/08/19 00:04:01;;;;;;;14.43;7.95;;;;;;;;;;6183772;23;20192;-93
2023/08/19 00:07:07;;;;;;;11.27;8.52;;;;;;;;;;6184105;23;20164;-94
2023/08/19 00:10:12;;;;;;;13.07;8.25;;;;;;;;;;6184897;23;20148;-92
2023/08/19 00:13:18;;;;;;;10.27;7.57;;;;;;;;;;6183157;23;20251;-93
2023/08/19 00:16:25;;;;;;;12.93;7.85;;;;;;;;;;6184072;23;20183;-94
2023/08/19 00:19:31;;;;;;;11.80;8.57;;;;;;;;;;6183412;23;20157;-93
2023/08/19 00:22:36;;;;;;;13.73;8.20;;;;;;;;;;6182388;23;20172;-92
2023/08/19 00:25:42;;;;;;;20.45;8.65;;;;;;;;;;6183632;23;20148;-94
2023/08/19 00:28:47;;;;;;;12.02;8.23;;;;;;;;;;6183206;23;20175;-93
2023/08/19 00:31:54;;;;;;;13.00;8.48;;;;;;;;;;6183017;23;20171;-93
2023/08/19 00:34:59;;;;;;;12.73;8.45;;;;;;;;;;6184667;23;20159;-93
2023/08/19 00:38:05;;;;;;;14.02;8.48;;;;;;;;;;6182016;23;20250;-92
2023/08/19 00:41:10;;;;;;;11.15;7.53;;;;;;;;;;6183818;23;20148;-93
2023/08/19 00:44:15;;;;;;;12.25;7.20;;;;;;;;;;6184414;23;20220;-91
2023/08/19 00:47:22;;;;;;;10.70;7.30;;;;;;;;;;6184143;23;20163;-91
2023/08/19 00:50:27;;;;;;;11.07;7.85;;;;;;;;;;6184364;23;20229;-93
2023/08/19 00:53:32;;;;;;;12.75;7.65;;;;;;;;;;6182981;23;20171;-92
2023/08/19 00:56:38;;;;;;;11.82;7.95;;;;;;;;;;6184244;23;20229;-90
2023/08/19 00:59:43;;;;;;;17.83;8.30;;;;;;;;;;6184610;23;20267;-91
2023/08/19 01:02:51;;;;;;;12.57;7.70;;;;;;;;;;6183951;23;20171;-92
2023/08/19 01:06:03;;;;;;;15.70;7.60;;;;;;;;;;6185046;23;20265;-93
2023/08/19 01:09:14;;;;;;;14.38;8.05;;;;;;;;;;6183866;23;20168;-92
2023/08/19 01:12:24;;;;;;;12.52;7.32;;;;;;;;;;6184264;23;20171;-92
2023/08/19 01:15:31;;;;;;;13.68;8.45;;;;;;;;;;6184989;23;20168;-91
2023/08/19 01:18:40;;;;;;;11.40;7.95;;;;;;;;;;6183192;23;20638;-91
2023/08/19 01:21:45;;;;;;;11.32;8.13;;;;;;;;;;6182720;23;20180;-92
2023/08/19 01:24:52;;;;;;;11.88;7.88;;;;;;;;;;6182701;23;20239;-92
2023/08/19 01:27:57;;;;;;;12.20;7.80;;;;;;;;;;6184526;23;20208;-92
2023/08/19 01:31:03;;;;;;;19.15;8.07;;;;;;;;;;6184792;23;20200;-92
2023/08/19 01:34:09;;;;;;;12.30;8.07;;;;;;;;;;6182703;23;20511;-89
2023/08/19 01:37:16;;;;;;;17.92;8.48;;;;;;;;;;6182515;23;20167;-91
2023/08/19 01:40:23;;;;;;;16.08;8.85;;;;;;;;;;6183320;23;20170;-92
2023/08/19 01:43:29;;;;;;;12.82;7.57;;;;;;;;;;6183168;23;20192;-92
2023/08/19 01:46:35;;;;;;;13.85;7.70;;;;;;;;;;6184670;23;20171;-94
2023/08/19 01:49:40;;;;;;;13.32;8.15;;;;;;;;;;6183007;23;20188;-91
2023/08/19 01:52:45;;;;;;;11.20;8.30;;;;;;;;;;6184563;23;20164;-92
2023/08/19 01:55:52;;;;;;;22.08;8.50;;;;;;;;;;6183569;23;20612;-93
2023/08/19 01:58:58;;;;;;;16.25;8.50;;;;;;;;;;6183049;23;20169;-92
2023/08/19 02:02:04;;;;;;;15.98;9.00;;;;;;;;;;6200775;23;20530;-92
2023/08/19 02:05:12;;;;;;;15.07;10.10;;;;;;;;;;6183064;23;20270;-92
2023/08/19 02:08:17;;;;;;;15.05;9.15;;;;;;;;;;6182278;23;20164;-92
2023/08/19 02:11:24;;;;;;;14.57;9.77;;;;;;;;;;6182623;23;20172;-92
2023/08/19 02:14:29;;;;;;;16.55;8.82;;;;;;;;;;6181766;23;20163;-95
2023/08/19 02:17:34;;;;;;;13.00;9.00;;;;;;;;;;6182054;23;20175;-92
2023/08/19 02:20:40;;;;;;;15.57;9.65;;;;;;;;;;6181829;23;20164;-91
2023/08/19 02:23:45;;;;;;;14.40;8.93;;;;;;;;;;6183760;23;20179;-93
2023/08/19 02:26:53;;;;;;;12.75;8.57;;;;;;;;;;6159085;23;20208;-93
2023/08/19 02:29:59;;;;;;;13.63;8.85;;;;;;;;;;6183132;23;20159;-92
2023/08/19 02:33:08;;;;;;;13.27;9.07;;;;;;;;;;6183900;23;20167;-93
2023/08/19 02:36:14;;;;;;;14.88;8.45;;;;;;;;;;6181862;23;20176;-92
2023/08/19 02:39:23;;;;;;;14.52;8.52;;;;;;;;;;6183009;23;20172;-92
2023/08/19 02:42:29;;;;;;;17.60;8.77;;;;;;;;;;6182721;23;20211;-92
2023/08/19 02:45:35;;;;;;;14.82;8.55;;;;;;;;;;6183121;23;20664;-91
2023/08/19 02:48:40;;;;;;;17.80;8.35;;;;;;;;;;6182703;23;20194;-92
2023/08/19 02:51:45;;;;;;;13.15;7.75;;;;;;;;;;6182510;23;20638;-91
2023/08/19 02:54:53;;;;;;;11.75;8.70;;;;;;;;;;6182779;23;20175;-92
2023/08/19 02:58:00;;;;;;;17.77;8.70;;;;;;;;;;6183098;23;20171;-92
2023/08/19 03:01:04;;;;;;;17.60;9.45;;;;;;;;;;6183184;23;20156;-93
2023/08/19 03:04:10;;;;;;;15.50;9.05;;;;;;;;;;6182210;23;20214;-92
2023/08/19 03:07:15;;;;;;;13.32;8.23;;;;;;;;;;6200300;23;20151;-91
2023/08/19 03:10:23;;;;;;;13.63;9.55;;;;;;;;;;6183513;23;20221;-90
2023/08/19 03:13:30;;;;;;;17.27;9.98;;;;;;;;;;6182882;23;20160;-93
2023/08/19 03:16:36;;;;;;;15.80;9.85;;;;;;;;;;6183127;23;20148;-92
2023/08/19 03:19:41;;;;;;;14.75;9.20;;;;;;;;;;6181580;23;20168;-91
2023/08/19 03:22:46;;;;;;;19.52;9.10;;;;;;;;;;6180784;23;20156;-91
2023/08/19 03:25:55;;;;;;;15.85;9.77;;;;;;;;;;6197868;23;20171;-91
2023/08/19 03:29:01;;;;;;;14.40;8.43;;;;;;;;;;6197532;23;20172;-92
2023/08/19 03:32:06;;;;;;;16.27;8.38;;;;;;;;;;6181991;23;20656;-92
2023/08/19 03:35:11;;;;;;;13.77;9.20;;;;;;;;;;6181026;23;20192;-92
2023/08/19 03:38:17;;;;;;;14.65;8.55;;;;;;;;;;6184068;23;20187;-91
2023/08/19 03:41:26;;;;;;;12.73;8.75;;;;;;;;;;6182456;23;20172;-92
2023/08/19 03:44:33;;;;;;;17.75;8.63;;;;;;;;;;6182995;23;20199;-93
2023/08/19 03:47:39;;;;;;;14.43;8.80;;;;;;;;;;6183279;23;20171;-92
2023/08/19 03:50:44;;;;;;;13.25;8.40;;;;;;;;;;6182258;23;20195;-92
2023/08/19 03:53:53;;;;;;;14.15;8.43;;;;;;;;;;6183358;22;20148;-92
2023/08/19 03:56:58;;;;;;;15.32;9.43;;;;;;;;;;6183661;23;20175;-92
2023/08/19 04:00:07;;;;;;;13.60;8.90;;;;;;;;;;6184370;23;20234;-93
2023/08/19 04:03:21;;;;;;;13.70;8.90;;;;;;;;;;6200414;22;20241;-93
2023/08/19 04:06:26;;;;;;;13.98;8.48;;;;;;;;;;6183361;22;20151;-92
2023/08/19 04:09:34;;;;;;;13.90;9.80;;;;;;;;;;6184838;22;20175;-93
2023/08/19 04:12:41;;;;;;;15.70;8.90;;;;;;;;;;6185051;23;20233;-93
2023/08/19 04:15:48;;;;;;;15.25;9.52;;;;;;;;;;6185411;23;20172;-91
2023/08/19 04:18:53;;;;;;;15.10;8.90;;;;;;;;;;6184189;23;20168;-91
2023/08/19 04:21:59;;;;;;;17.08;8.80;;;;;;;;;;6184531;22;20168;-92
2023/08/19 04:25:04;;;;;;;11.25;8.20;;;;;;;;;;6186289;22;20199;-90
2023/08/19 04:28:14;;;;;;;15.77;8.77;;;;;;;;;;6187129;23;20171;-92
2023/08/19 04:31:21;;;;;;;11.18;8.15;;;;;;;;;;6186782;23;20176;-91
2023/08/19 04:34:34;;;;;;;11.90;8.35;;;;;;;;;;6186049;22;20225;-92
2023/08/19 04:37:41;;;;;;;15.68;8.30;;;;;;;;;;6186999;23;20639;-91
2023/08/19 04:40:47;;;;;;;12.02;8.68;;;;;;;;;;6186646;23;20619;-91
2023/08/19 04:43:52;;;;;;;14.43;9.10;;;;;;;;;;6187229;23;20172;-93
2023/08/19 04:47:00;;;;;;;15.10;9.45;;;;;;;;;;6188098;23;20176;-92
2023/08/19 04:50:09;;;;;;;14.13;8.93;;;;;;;;;;6189798;23;20175;-91
2023/08/19 04:53:14;;;;;;;14.30;9.07;;;;;;;;;;6189362;23;20168;-91
2023/08/19 04:56:20;;;;;;;16.67;9.52;;;;;;;;;;6186330;23;20237;-92
2023/08/19 04:59:28;;;;;;;17.65;9.60;;;;;;;;;;6186263;23;20219;-93
2023/08/19 05:02:34;;;;;;;15.02;9.80;;;;;;;;;;6185358;23;20183;-90
2023/08/19 05:05:42;;;;;;;14.23;8.13;;;;;;;;;;6184541;23;20183;-92
2023/08/19 05:08:47;;;;;;;10.63;8.30;;;;;;;;;;6185010;23;20604;-91
2023/08/19 05:11:52;;;;;;;13.60;8.38;;;;;;;;;;6185102;23;20188;-92
2023/08/19 05:14:58;;;;;;;17.83;9.95;;;;;;;;;;6184355;23;20247;-92
2023/08/19 05:18:05;;;;;;;15.85;8.80;;;;;;;;;;6182162;23;20164;-93
2023/08/19 05:21:10;;;;;;;10.43;8.02;;;;;;;;;;6183191;23;20164;-91
2023/08/19 05:24:16;;;;;;;12.88;9.13;;;;;;;;;;6183051;23;20191;-91
2023/08/19 05:27:22;;;;;;;14.10;8.65;;;;;;;;;;6183337;23;20151;-92
2023/08/19 05:30:28;;;;;;;14.30;8.70;;;;;;;;;;6183128;23;20619;-92
2023/08/19 05:33:35;;;;;;;13.50;8.65;;;;;;;;;;6183153;23;20708;-92
2023/08/19 05:36:40;;;;;;;16.20;8.77;;;;;;;;;;6183832;23;20168;-92
2023/08/19 05:39:45;;;;;;;12.40;8.75;;;;;;;;;;6183420;23;20211;-92
2023/08/19 05:42:50;;;;;;;13.70;9.15;;;;;;;;;;6185002;23;20171;-93
2023/08/19 05:45:55;;;;;;;15.90;9.45;;;;;;;;;;6202613;23;20191;-92
2023/08/19 05:49:05;;;;;;;18.30;9.60;;;;;;;;;;6186441;23;20202;-90
2023/08/19 05:52:10;;;;;;;18.92;8.40;;;;;;;;;;6201821;23;20171;-92
2023/08/19 05:55:16;;;;;;;13.38;8.63;;;;;;;;;;6185462;23;20172;-91
2023/08/19 05:58:22;;;;;;;11.35;8.00;;;;;;;;;;6183186;23;20200;-90
2023/08/19 06:01:29;;;;;;;16.35;8.52;;;;;;;;;;6186207;23;20184;-91
2023/08/19 06:04:36;;;;;;;10.77;7.80;;;;;;;;;;6184575;23;20183;-93
2023/08/19 06:07:41;;;;;;;12.65;7.60;;;;;;;;;;6185243;23;20248;-93
2023/08/19 06:10:47;;;;;;;13.80;7.88;;;;;;;;;;6185096;23;20172;-92
2023/08/19 06:13:52;;;;;;;12.88;8.35;;;;;;;;;;6185764;23;20207;-92
2023/08/19 06:16:58;;;;;;;12.38;8.10;;;;;;;;;;6185591;23;20187;-92
2023/08/19 06:20:05;;;;;;;12.52;7.55;;;;;;;;;;6183818;23;20155;-93
2023/08/19 06:23:11;;;;;;;12.23;7.65;;;;;;;;;;6186972;23;20179;-92
2023/08/19 06:26:16;;;;;;;11.63;7.13;;;;;;;;;;6186059;23;20254;-93
2023/08/19 06:29:21;;;;;;;13.05;7.30;;;;;;;;;;6190974;23;20164;-92
2023/08/19 06:32:27;;;;;;;12.38;7.13;;;;;;;;;;6187476;23;20227;-92
2023/08/19 06:35:36;;;;;;;10.82;7.05;;;;;;;;;;6188007;23;20176;-92
2023/08/19 06:38:47;;;;;;;15.15;7.00;;;;;;;;;;6187663;23;20212;-92
2023/08/19 06:42:06;;;;;;;9.82;6.72;;;;;;;;;;6186284;23;20180;-95
2023/08/19 06:45:12;;;;;;;11.15;7.20;;;;;;;;;;6186577;23;20191;-93
2023/08/19 06:48:18;;;;;;;11.13;6.82;;;;;;;;;;6207499;23;20159;-92
2023/08/19 06:51:27;;;;;;;12.10;6.13;;;;;;;;;;6216374;23;20166;-93
2023/08/19 06:54:33;;;;;;;9.57;6.45;;;;;;;;;;6233709;22;20168;-93
2023/08/19 06:57:47;;;;;;;9.88;6.82;;;;;;;;;;6232140;22;20176;-93
2023/08/19 07:00:56;;;;;;;10.25;5.85;;;;;;;;;;6232932;23;20235;-92
2023/08/19 07:04:02;;;;;;;11.65;6.90;;;;;;;;;;6234226;22;20202;-94
2023/08/19 07:07:11;;;;;;;7.85;5.95;;;;;;;;;;6234327;23;20170;-94
2023/08/19 07:10:18;;;;;;;11.23;6.65;;;;;;;;;;6235346;22;20226;-92
2023/08/19 07:13:23;;;;;;;14.00;7.70;;;;;;;;;;6215548;23;20171;-91
2023/08/19 07:16:30;;;;;;;11.00;7.32;;;;;;;;;;6216484;23;20232;-93
2023/08/19 07:19:38;;;;;;;10.00;7.60;;;;;;;;;;6233078;22;20183;-93
2023/08/19 07:22:56;;;;;;;12.43;7.55;;;;;;;;;;6231748;23;20206;-92
2023/08/19 07:26:03;;;;;;;14.70;7.97;;;;;;;;;;6215691;23;20246;-93
2023/08/19 07:29:09;;;;;;;12.95;7.60;;;;;;;;;;6229281;23;20170;-92
2023/08/19 07:32:14;;;;;;;11.13;7.47;;;;;;;;;;6230409;22;20514;-94
2023/08/19 07:35:20;;;;;;;10.95;7.20;;;;;;;;;;6214845;23;20488;-91
2023/08/19 07:38:36;;;;;;;11.85;7.07;;;;;;;;;;6214122;23;20599;-94
2023/08/19 07:41:45;;;;;;;9.52;6.32;;;;;;;;;;6214674;23;20242;-92
2023/08/19 07:44:51;;;;;;;8.38;6.80;;;;;;;;;;6228404;23;20222;-93
2023/08/19 07:47:56;;;;;;;9.15;6.60;;;;;;;;;;6232003;22;20226;-93
2023/08/19 07:51:01;;;;;;;14.50;7.93;;;;;;;;;;6230663;22;20170;-93
2023/08/19 07:54:08;;;;;;;14.73;7.00;;;;;;;;;;6232627;22;20231;-92
2023/08/19 07:57:14;;;;;;;18.13;11.30;;;;;;;;;;6236651;22;20182;-93
2023/08/19 08:00:21;;;;;;;16.00;8.52;;;;;;;;;;6219850;23;20210;-95
2023/08/19 08:03:29;;;;;;;15.15;9.05;;;;;;;;;;6218058;23;20163;-93
2023/08/19 08:06:35;;;;;;;15.50;8.45;;;;;;;;;;6236110;23;20178;-94
2023/08/19 08:09:46;;;;;;;18.02;8.38;;;;;;;;;;6235198;22;20166;-92
2023/08/19 08:12:51;;;;;;;15.13;6.68;;;;;;;;;;6230891;23;20166;-92
2023/08/19 08:15:58;;;;;;;11.68;7.13;;;;;;;;;;6228808;23;20629;-92
2023/08/19 08:19:03;;;;;;;13.73;6.93;;;;;;;;;;6215162;23;20163;-90
2023/08/19 08:22:09;;;;;;;15.57;7.80;;;;;;;;;;6232488;22;20270;-91
2023/08/19 08:25:16;;;;;;;15.80;9.68;;;;;;;;;;6213078;23;20197;-93
2023/08/19 08:28:21;;;;;;;14.15;7.53;;;;;;;;;;6231370;23;20174;-94
2023/08/19 08:31:26;;;;;;;14.57;8.50;;;;;;;;;;6231256;23;20186;-92
2023/08/19 08:34:34;;;;;;;12.98;8.32;;;;;;;;;;6232692;23;20175;-94
2023/08/19 08:37:39;;;;;;;11.35;6.82;;;;;;;;;;6212722;23;20170;-92
2023/08/19 08:40:45;;;;;;;10.25;6.72;;;;;;;;;;6230457;22;20170;-94
2023/08/19 08:43:51;;;;;;;10.25;7.80;;;;;;;;;;6230380;22;20207;-94
2023/08/19 08:46:57;;;;;;;6.97;6.28;;;;;;;;;;6231358;23;20209;-94
2023/08/19 10:06:25;;;;;;;10.18;6.82;;;;;;;;;;6160138;22;20259;-92
2023/08/19 10:09:32;;;;;;;7.57;6.78;;;;;;;;;;6216555;23;20174;-92
2023/08/19 10:12:41;;;;;;;16.08;6.47;;;;;;;;;;6220890;23;20190;-91
2023/08/19 10:15:47;;;;;;;14.25;6.50;;;;;;;;;;6220985;23;20198;-93
2023/08/19 10:18:54;;;;;;;12.02;6.70;;;;;;;;;;6219724;23;20174;-92
2023/08/19 10:22:03;;;;;;;8.55;6.63;;;;;;;;;;6219884;23;20166;-92
2023/08/19 10:25:10;;;;;;;11.10;6.65;;;;;;;;;;6214754;23;20194;-92
2023/08/19 10:28:23;;;;;;;7.40;6.63;;;;;;;;;;6214373;23;20210;-92
2023/08/19 10:31:29;;;;;;;9.82;7.13;;;;;;;;;;6212575;23;20155;-93
2023/08/19 10:34:34;;;;;;;8.75;6.55;;;;;;;;;;6215346;23;20146;-94
2023/08/19 10:37:43;;;;;;;14.32;6.65;;;;;;;;;;6213304;23;20603;-91
2023/08/19 10:41:01;;;;;;;9.48;6.53;;;;;;;;;;6212081;23;20227;-90
2023/08/19 10:44:08;;;;;;;10.77;6.13;;;;;;;;;;6215409;23;20186;-93
2023/08/19 10:47:14;;;;;;;7.85;6.18;;;;;;;;;;6218876;23;20166;-93
2023/08/19 10:50:20;;;;;;;7.32;5.63;;;;;;;;;;6220259;23;20210;-92
2023/08/19 10:53:27;;;;;;;7.03;5.55;;;;;;;;;;6219373;23;20182;-92
2023/08/19 10:56:33;;;;;;;7.50;5.20;;;;;;;;;;6216732;23;20239;-92
2023/08/19 12:24:41;;;;;;;5.72;5.13;;;;;;;;;;6090891;23;20197;-92
2023/08/19 12:27:47;;;;;;;6.07;5.05;;;;;;;;;;6094714;23;20153;-94
2023/08/19 12:30:52;;;;;;;11.02;5.13;;;;;;;;;;6096011;23;20173;-93
2023/08/19 12:33:57;;;;;;;6.63;4.70;;;;;;;;;;6095863;23;20233;-94
2023/08/19 12:37:02;;;;;;;6.80;4.80;;;;;;;;;;6095705;23;20196;-94
2023/08/19 12:40:11;;;;;;;6.85;4.97;;;;;;;;;;6093913;23;20225;-92
2023/08/19 12:43:16;;;;;;;8.30;4.68;;;;;;;;;;6095259;23;20178;-92
2023/08/19 12:46:22;;;;;;;8.52;4.97;;;;;;;;;;6092193;23;20661;-94
2023/08/19 12:49:27;;;;;;;8.18;4.63;;;;;;;;;;6093885;23;20169;-93
2023/08/19 12:52:34;;;;;;;6.47;4.43;;;;;;;;;;6096038;23;20214;-93
2023/08/19 12:55:42;;;;;;;6.90;4.63;;;;;;;;;;6093882;23;20197;-92
2023/08/19 14:15:05;;;;;;;5.70;3.88;;;;;;;;;;6216018;22;20274;-92
2023/08/19 14:18:10;;;;;;;4.40;3.80;;;;;;;;;;6213750;23;20170;-95
2023/08/19 14:21:15;;;;;;;6.53;3.60;;;;;;;;;;6211665;23;20177;-94
2023/08/19 14:24:25;;;;;;;7.47;4.35;;;;;;;;;;6214390;23;20226;-93
2023/08/19 14:27:33;;;;;;;6.30;3.90;;;;;;;;;;6215733;23;20218;-94
2023/08/19 14:30:41;;;;;;;6.53;3.65;;;;;;;;;;6213745;23;20175;-93
2023/08/19 14:33:46;;;;;;;7.38;3.78;;;;;;;;;;6215128;23;20275;-93
2023/08/19 14:36:53;;;;;;;7.18;4.10;;;;;;;;;;6212670;23;20249;-90
2023/08/19 14:40:00;;;;;;;6.20;4.20;;;;;;;;;;6216156;23;20243;-91
2023/08/19 14:43:06;;;;;;;8.77;4.15;;;;;;;;;;6212593;23;20175;-95
2023/08/19 14:46:13;;;;;;;6.50;3.97;;;;;;;;;;6217600;23;20167;-92
2023/08/19 14:49:18;;;;;;;6.53;4.00;;;;;;;;;;6214921;23;20166;-92
2023/08/19 14:52:24;;;;;;;4.35;3.50;;;;;;;;;;6215457;23;20170;-92
2023/08/19 14:55:29;;;;;;;5.97;3.83;;;;;;;;;;6214056;23;20478;-92
2023/08/19 14:58:35;;;;;;;9.80;4.18;;;;;;;;;;6215931;23;20198;-92
2023/08/19 15:01:42;;;;;;;5.55;3.75;;;;;;;;;;6215664;23;20211;-93
2023/08/19 15:04:47;;;;;;;6.38;3.92;;;;;;;;;;6214012;23;20198;-92
2023/08/19 15:07:53;;;;;;;6.07;4.35;;;;;;;;;;6215007;23;20174;-92
2023/08/19 15:11:01;;;;;;;6.28;4.20;;;;;;;;;;6218757;23;20209;-92
2023/08/19 15:14:07;;;;;;;5.20;3.60;;;;;;;;;;6217815;23;20190;-93
2023/08/19 15:17:15;;;;;;;5.25;4.20;;;;;;;;;;6215450;23;20178;-93
2023/08/19 15:20:21;;;;;;;5.13;4.28;;;;;;;;;;6218015;23;20165;-92
2023/08/19 15:23:27;;;;;;;11.00;4.50;;;;;;;;;;6217283;23;20166;-93
2023/08/19 15:26:32;;;;;;;6.30;3.60;;;;;;;;;;6215425;23;20225;-95
2023/08/19 15:29:38;;;;;;;7.82;4.03;;;;;;;;;;6215754;23;20165;-91
2023/08/19 15:32:50;;;;;;;6.55;3.90;;;;;;;;;;6214914;23;20163;-92
2023/08/19 15:35:56;;;;;;;7.97;4.18;;;;;;;;;;6216098;23;20153;-93
2023/08/19 15:39:02;;;;;;;7.40;3.95;;;;;;;;;;6215875;23;20170;-92
2023/08/19 15:42:07;;;;;;;5.63;4.40;;;;;;;;;;6216548;23;20166;-92
2023/08/19 15:45:13;;;;;;;6.93;4.60;;;;;;;;;;6216111;23;20158;-92
2023/08/19 15:48:20;;;;;;;8.52;4.30;;;;;;;;;;6215520;23;20163;-91
2023/08/19 15:51:26;;;;;;;12.27;4.43;;;;;;;;;;6216227;23;20166;-92
2023/08/19 15:57:52;;;;;;;6.25;3.92;;;;;;;;;;6218534;23;20189;-91
2023/08/19 16:00:58;;;;;;;6.53;4.10;;;;;;;;;;6215322;23;20166;-93
2023/08/19 16:04:05;;;;;;;4.82;4.00;;;;;;;;;;6218490;23;20231;-92
2023/08/19 16:07:15;;;;;;;6.63;4.30;;;;;;;;;;6219784;23;20151;-91
2023/08/19 16:10:22;;;;;;;7.43;4.43;;;;;;;;;;6221720;23;20209;-93
2023/08/19 16:13:27;;;;;;;10.80;4.15;;;;;;;;;;6221612;23;20178;-93
2023/08/19 16:16:33;;;;;;;6.82;4.38;;;;;;;;;;6221274;23;20274;-92
2023/08/19 16:19:41;;;;;;;13.07;5.47;;;;;;;;;;6220518;23;20166;-94
2023/08/19 16:22:46;;;;;;;11.23;4.70;;;;;;;;;;6216006;23;20163;-91
2023/08/19 16:25:51;;;;;;;7.40;4.75;;;;;;;;;;6215635;23;20163;-93
2023/08/19 16:28:57;;;;;;;7.97;5.10;;;;;;;;;;6220135;23;20166;-91
2023/08/19 16:32:03;;;;;;;5.60;4.35;;;;;;;;;;6220331;23;20266;-93
2023/08/19 16:35:10;;;;;;;8.75;4.18;;;;;;;;;;6218515;23;20210;-93
2023/08/19 16:38:16;;;;;;;8.45;4.82;;;;;;;;;;6215983;23;20189;-90
2023/08/19 16:41:21;;;;;;;5.80;4.00;;;;;;;;;;6214929;23;20197;-92
2023/08/19 16:44:27;;;;;;;7.85;5.15;;;;;;;;;;6214356;23;20208;-93
2023/08/19 16:47:34;;;;;;;10.50;4.72;;;;;;;;;;6215079;23;20217;-92
2023/08/19 16:50:41;;;;;;;17.50;5.00;;;;;;;;;;6218106;23;20220;-92
2023/08/19 16:53:47;;;;;;;10.88;4.28;;;;;;;;;;6214773;23;20171;-90
2023/08/19 16:56:52;;;;;;;8.50;4.45;;;;;;;;;;6214538;23;20194;-93
2023/08/19 16:59:57;;;;;;;11.27;4.95;;;;;;;;;;6216284;23;20146;-91
2023/08/19 17:03:02;;;;;;;8.48;4.88;;;;;;;;;;6214793;23;20167;-93
2023/08/19 17:06:08;;;;;;;9.77;5.07;;;;;;;;;;6215332;23;20208;-92
2023/08/19 17:09:14;;;;;;;11.18;5.05;;;;;;;;;;6213597;23;20516;-93
2023/08/19 17:12:19;;;;;;;11.40;5.10;;;;;;;;;;6211602;23;20166;-92
2023/08/19 17:15:34;;;;;;;6.88;4.57;;;;;;;;;;6212165;23;20178;-92
2023/08/19 17:18:39;;;;;;;10.30;5.22;;;;;;;;;;6211891;23;20172;-93
2023/08/19 17:21:45;;;;;;;9.40;4.90;;;;;;;;;;6210742;23;20167;-92
2023/08/19 17:24:50;;;;;;;9.80;5.00;;;;;;;;;;6209944;23;20214;-92
2023/08/19 17:27:56;;;;;;;8.15;4.97;;;;;;;;;;6211049;23;20175;-92
2023/08/19 17:31:02;;;;;;;14.45;7.45;;;;;;;;;;6215098;23;20163;-91
2023/08/19 17:34:12;;;;;;;8.93;5.32;;;;;;;;;;6218763;23;20191;-94
2023/08/19 17:37:20;;;;;;;13.43;5.30;;;;;;;;;;6219566;23;20191;-90
2023/08/19 17:40:26;;;;;;;8.25;5.20;;;;;;;;;;6212752;23;20311;-91
2023/08/19 17:43:32;;;;;;;11.40;5.88;;;;;;;;;;6215789;23;20179;-92
2023/08/19 17:46:38;;;;;;;10.88;6.03;;;;;;;;;;6213181;23;20171;-91
2023/08/19 17:49:43;;;;;;;9.18;6.05;;;;;;;;;;6217049;23;20223;-92
2023/08/19 17:52:50;;;;;;;10.93;6.32;;;;;;;;;;6214541;23;20215;-92
2023/08/19 17:55:58;;;;;;;8.55;6.03;;;;;;;;;;6213803;23;20171;-91
2023/08/19 17:59:06;;;;;;;10.88;5.13;;;;;;;;;;6213355;23;20167;-91
2023/08/19 18:02:16;;;;;;;12.77;6.45;;;;;;;;;;6212166;23;20151;-91
2023/08/19 18:05:21;;;;;;;10.02;5.80;;;;;;;;;;6211803;23;20235;-91
2023/08/19 18:08:28;;;;;;;10.30;5.85;;;;;;;;;;6212735;23;20174;-92
2023/08/19 18:11:33;;;;;;;8.32;5.72;;;;;;;;;;6212647;23;20626;-91
2023/08/19 18:14:39;;;;;;;10.90;5.55;;;;;;;;;;6214082;23;20211;-92
2023/08/19 18:17:44;;;;;;;11.35;5.53;;;;;;;;;;6214082;23;20198;-92
2023/08/19 18:20:53;;;;;;;9.20;6.68;;;;;;;;;;6215749;23;20183;-91
2023/08/19 18:24:00;;;;;;;13.32;6.88;;;;;;;;;;6218235;23;20662;-91
2023/08/19 18:27:14;;;;;;;14.40;7.40;;;;;;;;;;6219853;23;20162;-91
2023/08/19 18:30:22;;;;;;;19.35;11.23;;;;;;;;;;6218996;23;20175;-91
2023/08/19 18:33:27;;;;;;;13.15;8.20;;;;;;;;;;6237780;23;20166;-93
2023/08/19 18:36:33;;;;;;;9.57;5.90;;;;;;;;;;6218660;23;20220;-92
2023/08/19 18:39:40;;;;;;;15.85;9.77;;;;;;;;;;6216866;23;20166;-92
2023/08/19 18:42:45;;;;;;;12.30;7.03;;;;;;;;;;6218078;23;20227;-92
2023/08/19 18:45:52;;;;;;;15.40;7.38;;;;;;;;;;6218289;23;20197;-93
2023/08/19 18:48:57;;;;;;;12.00;7.18;;;;;;;;;;6217763;23;20171;-92
2023/08/19 18:52:03;;;;;;;10.43;6.57;;;;;;;;;;6219092;23;20155;-92
2023/08/19 18:55:11;;;;;;;12.52;6.43;;;;;;;;;;6217737;23;20183;-91
2023/08/19 18:58:16;;;;;;;11.63;6.70;;;;;;;;;;6218556;23;20198;-91
2023/08/19 19:01:22;;;;;;;10.23;6.32;;;;;;;;;;6218994;23;20154;-92
2023/08/19 19:04:27;;;;;;;12.57;7.13;;;;;;;;;;6219171;23;20162;-92
2023/08/19 19:07:34;;;;;;;9.70;6.45;;;;;;;;;;6218778;23;20167;-93
2023/08/19 19:10:41;;;;;;;11.40;8.02;;;;;;;;;;6218587;23;20191;-92
2023/08/19 19:13:46;;;;;;;19.25;9.20;;;;;;;;;;6218979;23;20206;-91
2023/08/19 20:44:52;;;;;;;16.25;9.10;;;;;;;;;;6173028;22;20659;-93
2023/08/19 20:47:58;;;;;;;15.85;9.15;;;;;;;;;;6218391;23;20191;-91
2023/08/19 20:51:03;;;;;;;13.05;8.57;;;;;;;;;;6220591;23;20167;-93
2023/08/19 20:54:11;;;;;;;12.35;8.60;;;;;;;;;;6220220;23;20215;-92
2023/08/19 20:57:16;;;;;;;12.73;8.98;;;;;;;;;;6220383;23;20186;-93
2023/08/19 21:00:23;;;;;;;13.23;8.90;;;;;;;;;;6221075;23;20195;-94
2023/08/19 21:03:29;;;;;;;16.73;8.95;;;;;;;;;;6219655;23;20476;-92
2023/08/19 21:06:33;;;;;;;16.42;9.15;;;;;;;;;;6219892;23;20155;-94
2023/08/19 21:09:39;;;;;;;13.32;9.60;;;;;;;;;;6219395;23;20186;-92
2023/08/19 21:12:45;;;;;;;14.55;9.02;;;;;;;;;;6219552;23;20187;-93
2023/08/19 21:15:52;;;;;;;11.48;8.65;;;;;;;;;;6213213;23;20171;-92
2023/08/19 21:18:58;;;;;;;16.00;9.40;;;;;;;;;;6210131;23;20231;-92
2023/08/19 21:22:03;;;;;;;17.90;9.38;;;;;;;;;;6212995;23;20224;-92
2023/08/19 21:25:11;;;;;;;18.40;11.98;;;;;;;;;;6218680;23;20198;-93
2023/08/19 21:28:16;;;;;;;11.43;8.48;;;;;;;;;;6218780;23;20221;-91
2023/08/19 21:31:23;;;;;;;14.82;9.50;;;;;;;;;;6218429;23;20162;-92
2023/08/19 21:34:28;;;;;;;15.50;9.18;;;;;;;;;;6218724;23;20170;-93
2023/08/19 21:37:34;;;;;;;21.13;9.38;;;;;;;;;;6218983;23;20176;-93
2023/08/19 21:40:40;;;;;;;15.65;9.27;;;;;;;;;;6219780;23;20187;-93
2023/08/19 21:43:45;;;;;;;12.63;8.82;;;;;;;;;;6216851;23;20627;-92
2023/08/19 21:46:56;;;;;;;16.13;8.48;;;;;;;;;;6213532;23;20240;-92
2023/08/19 21:50:00;;;;;;;13.43;8.93;;;;;;;;;;6211749;23;20163;-91
2023/08/19 21:53:06;;;;;;;15.63;8.80;;;;;;;;;;6213547;23;20259;-93
2023/08/19 21:56:11;;;;;;;13.90;8.57;;;;;;;;;;6213448;23;20171;-93
2023/08/19 21:59:16;;;;;;;18.00;9.10;;;;;;;;;;6212599;23;20182;-93
2023/08/19 22:02:37;;;;;;;14.98;9.05;;;;;;;;;;6213030;23;20191;-91
2023/08/19 22:05:48;;;;;;;12.27;9.30;;;;;;;;;;6212177;23;20291;-92
2023/08/19 22:08:55;;;;;;;13.65;9.35;;;;;;;;;;6213819;23;20183;-92
2023/08/19 22:12:01;;;;;;;17.45;9.40;;;;;;;;;;6213886;23;20174;-92
2023/08/19 22:15:08;;;;;;;16.75;10.43;;;;;;;;;;6214152;23;20240;-93
2023/08/19 22:18:12;;;;;;;17.30;10.07;;;;;;;;;;6211728;23;20175;-90
2023/08/19 22:21:19;;;;;;;14.38;10.13;;;;;;;;;;6210300;23;20175;-93
2023/08/19 22:24:25;;;;;;;14.68;10.15;;;;;;;;;;6228381;23;20195;-93
2023/08/19 22:27:31;;;;;;;15.30;10.23;;;;;;;;;;6209579;23;20171;-93
2023/08/19 22:30:38;;;;;;;13.68;9.77;;;;;;;;;;6209679;23;20496;-93
2023/08/19 22:33:46;;;;;;;17.73;10.50;;;;;;;;;;6211966;23;20244;-92
2023/08/19 22:36:52;;;;;;;14.50;9.82;;;;;;;;;;6213114;23;20175;-92
2023/08/19 22:39:57;;;;;;;18.80;10.40;;;;;;;;;;6214433;23;20156;-92
2023/08/19 22:43:03;;;;;;;18.30;10.35;;;;;;;;;;6210942;23;20167;-93
2023/08/19 22:46:09;;;;;;;15.60;9.95;;;;;;;;;;6232490;23;20182;-94
2023/08/19 22:49:14;;;;;;;17.88;10.00;;;;;;;;;;6212256;23;20195;-92
2023/08/19 22:52:22;;;;;;;15.60;10.25;;;;;;;;;;6213594;23;20168;-93
2023/08/19 22:55:27;;;;;;;14.45;10.05;;;;;;;;;;6213488;23;20215;-93
2023/08/19 22:58:32;;;;;;;14.95;10.23;;;;;;;;;;6212223;23;20207;-92
2023/08/19 23:01:37;;;;;;;16.95;10.30;;;;;;;;;;6212681;23;20202;-91
2023/08/19 23:04:42;;;;;;;15.45;10.32;;;;;;;;;;6228235;23;20179;-90
2023/08/19 23:07:53;;;;;;;19.63;10.18;;;;;;;;;;6210518;23;20191;-92
2023/08/19 23:10:58;;;;;;;13.90;9.80;;;;;;;;;;6227765;23;20199;-90
2023/08/19 23:14:03;;;;;;;18.10;10.82;;;;;;;;;;6211370;23;20722;-93
2023/08/19 23:17:08;;;;;;;18.92;10.40;;;;;;;;;;6209957;23;20163;-90
2023/08/19 23:20:14;;;;;;;14.23;9.93;;;;;;;;;;6213524;23;20175;-92
2023/08/19 23:23:20;;;;;;;20.95;10.63;;;;;;;;;;6228462;23;20490;-92
2023/08/19 23:26:25;;;;;;;15.80;10.35;;;;;;;;;;6209964;23;20171;-91
2023/08/19 23:29:30;;;;;;;15.18;11.10;;;;;;;;;;6227884;23;20183;-93
2023/08/19 23:32:35;;;;;;;13.75;10.77;;;;;;;;;;6210464;23;20246;-91
2023/08/19 23:35:40;;;;;;;15.75;10.68;;;;;;;;;;6210735;23;20167;-93
2023/08/19 23:38:47;;;;;;;12.57;10.00;;;;;;;;;;6228543;23;20210;-89
2023/08/19 23:41:52;;;;;;;21.00;10.77;;;;;;;;;;6227827;23;20167;-92
2023/08/19 23:44:58;;;;;;;18.55;11.20;;;;;;;;;;6227827;23;20195;-93
2023/08/19 23:48:07;;;;;;;19.73;11.43;;;;;;;;;;6227211;23;20210;-92
2023/08/19 23:51:16;;;;;;;16.75;10.27;;;;;;;;;;6212005;23;20226;-93